createdAt,value
2018-10-09T00:01:58.095Z,58.40
2018-10-09T00:04:29.198Z,58.90
2018-10-09T00:07:00.929Z,61.10
2018-10-09T00:09:32.423Z,58.60
2018-10-09T00:12:04.762Z,58.70
2018-10-09T00:14:35.968Z,58.30
2018-10-09T00:17:07.762Z,58.43
2018-10-09T00:19:38.956Z,55.00
2018-10-09T00:22:10.535Z,61.60
2018-10-09T00:24:41.571Z,58.90
2018-10-09T00:27:13.333Z,60.50
2018-10-09T00:29:44.616Z,61.40
2018-10-09T00:32:16.036Z,57.60
2018-10-09T00:34:47.466Z,56.87
2018-10-09T00:37:18.895Z,59.80
2018-10-09T00:39:50.364Z,59.40
2018-10-09T00:42:21.851Z,61.20
2018-10-09T00:44:53.196Z,57.80
2018-10-09T00:47:24.584Z,56.50
2018-10-09T00:49:55.827Z,57.67
2018-10-09T00:52:27.441Z,57.40
2018-10-09T00:54:59.055Z,57.67
2018-10-09T00:57:30.984Z,55.83
2018-10-09T01:00:04.469Z,56.90
2018-10-09T01:02:36.000Z,56.63
2018-10-09T01:05:07.228Z,57.33
2018-10-09T01:07:38.667Z,56.93
2018-10-09T01:10:10.003Z,54.70
2018-10-09T01:12:41.521Z,57.63
2018-10-09T01:15:12.696Z,56.63
2018-10-09T01:17:44.461Z,54.73
2018-10-09T01:20:20.154Z,56.43
2018-10-09T01:22:52.073Z,54.80
2018-10-09T01:25:23.624Z,58.07
2018-10-09T01:27:55.062Z,56.87
2018-10-09T01:30:26.267Z,56.10
2018-10-09T01:32:59.175Z,54.77
2018-10-09T01:35:30.424Z,56.53
2018-10-09T01:38:02.534Z,55.03
2018-10-09T01:40:33.828Z,57.50
2018-10-09T01:43:06.754Z,57.93
2018-10-09T01:45:38.016Z,56.93
2018-10-09T01:48:09.655Z,58.47
2018-10-09T01:50:41.277Z,55.63
2018-10-09T01:53:13.504Z,53.27
2018-10-09T01:55:45.310Z,56.70
2018-10-09T01:58:17.260Z,52.60
2018-10-09T02:00:49.464Z,59.37
2018-10-09T02:03:21.012Z,55.67
2018-10-09T02:05:52.406Z,56.67
2018-10-09T02:08:25.933Z,56.13
2018-10-09T02:10:57.864Z,57.63
2018-10-09T02:13:29.424Z,55.50
2018-10-09T02:16:00.882Z,56.57
2018-10-09T02:18:32.937Z,56.63
2018-10-09T02:21:04.349Z,56.33
2018-10-09T02:23:36.023Z,55.77
2018-10-09T02:26:07.068Z,57.27
2018-10-09T02:28:39.015Z,55.83
2018-10-09T02:31:10.382Z,60.80
2018-10-09T02:33:41.880Z,56.70
2018-10-09T02:36:13.239Z,55.07
2018-10-09T02:38:44.723Z,55.00
2018-10-09T02:41:16.167Z,56.30
2018-10-09T02:43:48.219Z,58.23
2018-10-09T02:46:19.547Z,57.50
2018-10-09T02:48:51.321Z,55.20
2018-10-09T02:51:22.819Z,58.23
2018-10-09T02:53:56.075Z,54.13
2018-10-09T02:56:28.003Z,55.53
2018-10-09T02:58:59.640Z,57.40
2018-10-09T03:01:32.442Z,57.03
2018-10-09T03:04:04.183Z,55.63
2018-10-09T03:06:35.188Z,56.93
2018-10-09T03:09:08.392Z,59.40
2018-10-09T03:11:39.480Z,58.70
2018-10-09T03:14:11.079Z,56.03
2018-10-09T03:16:42.196Z,58.27
2018-10-09T03:19:13.807Z,56.30
2018-10-09T03:21:44.880Z,54.87
2018-10-09T03:24:16.723Z,54.70
2018-10-09T03:26:48.122Z,60.83
2018-10-09T03:29:19.891Z,59.47
2018-10-09T03:31:51.203Z,64.63
2018-10-09T03:34:24.132Z,68.00
2018-10-09T03:36:55.419Z,69.43
2018-10-09T03:39:27.228Z,67.80
2018-10-09T03:41:58.487Z,74.87
2018-10-09T03:44:30.415Z,75.00
2018-10-09T03:47:04.470Z,80.50
2018-10-09T03:49:35.952Z,79.17
2018-10-09T03:52:09.204Z,82.27
2018-10-09T03:54:40.653Z,75.87
2018-10-09T03:57:12.099Z,74.40
2018-10-09T03:59:43.883Z,79.30
2018-10-09T04:02:16.811Z,79.00
2018-10-09T04:04:48.663Z,82.53
2018-10-09T04:07:20.116Z,78.43
2018-10-09T04:09:52.174Z,80.50
2018-10-09T04:12:23.395Z,86.77
2018-10-09T04:14:54.900Z,88.97
2018-10-09T04:17:26.103Z,89.77
2018-10-09T04:19:58.023Z,90.40
2018-10-09T04:22:29.511Z,92.70
2018-10-09T04:25:01.067Z,87.77
2018-10-09T04:27:32.447Z,91.07
2018-10-09T04:30:04.247Z,93.20
2018-10-09T04:32:35.875Z,90.57
2018-10-09T04:35:09.477Z,85.33
2018-10-09T04:37:40.871Z,93.53
2018-10-09T04:40:12.263Z,86.87
2018-10-09T04:42:43.655Z,83.90
2018-10-09T04:45:15.351Z,81.70
2018-10-09T04:47:46.622Z,81.90
2018-10-09T04:50:18.471Z,81.27
2018-10-09T04:52:49.624Z,80.40
2018-10-09T04:55:21.315Z,80.17
2018-10-09T04:57:52.387Z,77.97
2018-10-09T05:00:23.820Z,77.10
2018-10-09T05:02:56.307Z,77.20
2018-10-09T05:05:27.579Z,70.73
2018-10-09T05:07:58.807Z,69.13
2018-10-09T05:10:30.306Z,65.67
2018-10-09T05:13:04.442Z,62.97
2018-10-09T05:15:36.215Z,64.40
2018-10-09T05:18:09.447Z,66.57
2018-10-09T05:20:40.999Z,66.23
2018-10-09T05:23:12.308Z,58.10
2018-10-09T05:25:43.956Z,59.13
2018-10-09T05:28:15.428Z,59.90
2018-10-09T05:30:47.101Z,57.87
2018-10-09T05:33:18.243Z,57.87
2018-10-09T05:35:49.847Z,56.83
2018-10-09T05:38:21.161Z,60.47
2018-10-09T05:40:52.527Z,61.47
2018-10-09T05:43:23.933Z,60.17
2018-10-09T05:45:55.703Z,62.27
2018-10-09T05:48:26.772Z,63.43
2018-10-09T05:50:58.638Z,65.83
2018-10-09T05:53:29.743Z,59.63
2018-10-09T05:56:01.557Z,61.10
2018-10-09T05:58:32.847Z,63.30
2018-10-09T06:01:05.355Z,66.60
2018-10-09T06:03:37.733Z,65.73
2018-10-09T06:06:09.281Z,65.87
2018-10-09T06:08:40.511Z,68.17
2018-10-09T06:11:11.907Z,68.30
2018-10-09T06:13:43.240Z,63.90
2018-10-09T06:16:15.192Z,67.83
2018-10-09T06:18:46.303Z,66.60
2018-10-09T06:21:18.036Z,61.67
2018-10-09T06:23:49.667Z,58.83
2018-10-09T06:26:21.263Z,61.90
2018-10-09T06:28:52.573Z,55.00
2018-10-09T06:31:24.116Z,57.90
2018-10-09T06:33:55.413Z,61.40
2018-10-09T06:36:27.296Z,60.17
2018-10-09T06:38:58.727Z,55.73
2018-10-09T06:41:30.647Z,56.23
2018-10-09T06:44:02.044Z,50.67
2018-10-09T06:46:33.391Z,50.50
2018-10-09T06:49:05.984Z,55.00
2018-10-09T06:51:38.033Z,51.80
2018-10-09T06:54:09.829Z,53.23
2018-10-09T06:56:41.548Z,52.90
2018-10-09T06:59:12.931Z,51.30
2018-10-09T07:01:44.280Z,53.20
2018-10-09T07:04:16.803Z,60.87
2018-10-09T07:06:48.275Z,63.50
2018-10-09T07:09:19.799Z,58.90
2018-10-09T07:11:51.354Z,58.83
2018-10-09T07:14:22.739Z,65.93
2018-10-09T07:16:54.448Z,65.57
2018-10-09T07:19:25.647Z,60.33
2018-10-09T07:21:57.763Z,63.27
2018-10-09T07:24:29.172Z,65.50
2018-10-09T07:27:00.692Z,62.37
2018-10-09T07:29:32.046Z,62.83
2018-10-09T07:32:04.117Z,63.93
2018-10-09T07:34:35.185Z,59.63
2018-10-09T07:37:07.035Z,65.37
2018-10-09T07:39:38.160Z,64.27
2018-10-09T07:42:09.785Z,66.07
2018-10-09T07:44:41.180Z,64.00
2018-10-09T07:47:12.482Z,62.93
2018-10-09T07:49:43.629Z,63.10
2018-10-09T07:52:15.316Z,63.80
2018-10-09T07:54:46.802Z,63.40
2018-10-09T07:57:18.238Z,64.90
2018-10-09T07:59:49.732Z,62.07
2018-10-09T08:02:21.211Z,59.20
2018-10-09T08:04:52.858Z,60.10
2018-10-09T08:07:24.231Z,56.27
2018-10-09T08:09:55.376Z,60.63
2018-10-09T08:12:27.370Z,60.93
2018-10-09T08:15:00.080Z,59.20
2018-10-09T08:17:31.731Z,61.87
2018-10-09T08:20:03.675Z,59.20
2018-10-09T08:22:35.416Z,58.27
2018-10-09T08:25:06.752Z,58.73
2018-10-09T08:27:37.947Z,56.87
2018-10-09T08:30:09.422Z,58.23
2018-10-09T08:32:40.879Z,58.93
2018-10-09T08:35:12.207Z,57.23
2018-10-09T08:37:43.655Z,58.20
2018-10-09T08:40:14.946Z,61.57
2018-10-09T08:42:46.292Z,59.43
2018-10-09T08:45:17.916Z,59.20
2018-10-09T08:47:49.675Z,60.23
2018-10-09T08:50:21.779Z,61.40
2018-10-09T08:52:53.667Z,61.87
2018-10-09T08:55:25.112Z,62.37
2018-10-09T08:57:56.900Z,58.77
2018-10-09T09:00:28.323Z,60.80
2018-10-09T09:03:02.384Z,61.20
2018-10-09T09:05:35.901Z,59.80
2018-10-09T09:08:07.462Z,60.43
2018-10-09T09:10:38.817Z,60.20
2018-10-09T09:13:10.424Z,59.20
2018-10-09T09:15:41.704Z,58.43
2018-10-09T09:18:13.546Z,60.60
2018-10-09T09:20:44.978Z,61.30
2018-10-09T09:23:16.414Z,59.20
2018-10-09T09:25:47.916Z,59.90
2018-10-09T09:28:19.399Z,62.00
2018-10-09T09:30:50.746Z,59.30
2018-10-09T09:33:22.369Z,61.20
2018-10-09T09:35:53.680Z,62.80
2018-10-09T09:38:25.287Z,58.53
2018-10-09T09:40:56.990Z,61.00
2018-10-09T09:43:28.503Z,63.60
2018-10-09T09:45:59.873Z,61.53
2018-10-09T09:48:31.457Z,62.37
2018-10-09T09:51:02.975Z,61.80
2018-10-09T09:53:34.995Z,61.60
2018-10-09T09:56:06.860Z,62.37
2018-10-09T09:58:38.451Z,66.53
2018-10-09T10:01:11.621Z,65.53
2018-10-09T10:03:43.671Z,63.50
2018-10-09T10:06:16.136Z,61.07
2018-10-09T10:08:47.611Z,60.93
2018-10-09T10:11:18.860Z,63.33
2018-10-09T10:13:50.150Z,63.70
2018-10-09T10:16:21.481Z,64.27
2018-10-09T10:18:52.968Z,65.20
2018-10-09T10:21:24.763Z,65.40
2018-10-09T10:23:57.042Z,68.90
2018-10-09T10:26:28.387Z,67.60
2018-10-09T10:29:00.230Z,67.33
2018-10-09T10:31:31.625Z,68.07
2018-10-09T10:34:05.560Z,65.77
2018-10-09T10:36:37.020Z,66.83
2018-10-09T10:39:11.876Z,71.30
2018-10-09T10:41:43.322Z,72.37
2018-10-09T10:44:14.912Z,70.03
2018-10-09T10:46:46.265Z,70.20
2018-10-09T10:49:17.820Z,71.80
2018-10-09T10:51:49.229Z,69.80
2018-10-09T10:54:20.739Z,72.07
2018-10-09T10:56:52.079Z,69.00
2018-10-09T10:59:23.974Z,67.47
2018-10-09T11:01:55.243Z,63.60
2018-10-09T11:04:27.131Z,65.03
2018-10-09T11:06:59.116Z,62.20
2018-10-09T11:09:31.032Z,61.63
2018-10-09T11:12:02.306Z,62.40
2018-10-09T11:14:33.727Z,60.90
2018-10-09T11:17:05.006Z,62.63
2018-10-09T11:19:36.623Z,59.17
2018-10-09T11:22:08.008Z,59.70
2018-10-09T11:24:39.858Z,59.47
2018-10-09T11:27:10.942Z,60.40
2018-10-09T11:29:42.234Z,58.80
2018-10-09T11:32:13.583Z,57.63
2018-10-09T11:34:45.183Z,58.87
2018-10-09T11:37:15.511Z,58.20
2018-10-09T11:39:46.887Z,58.37
2018-10-09T11:42:18.376Z,64.50
2018-10-09T11:44:49.947Z,57.77
2018-10-09T11:47:21.398Z,59.40
2018-10-09T11:49:52.900Z,59.93
2018-10-09T11:52:24.305Z,61.93
2018-10-09T11:54:55.774Z,59.60
2018-10-09T11:57:27.401Z,62.53
2018-10-09T11:59:58.791Z,60.93
2018-10-09T12:02:30.059Z,62.77
2018-10-09T12:05:02.822Z,61.33
2018-10-09T12:07:34.464Z,62.77
2018-10-09T12:10:06.181Z,64.30
2018-10-09T12:12:37.635Z,66.70
2018-10-09T12:15:09.161Z,68.60
2018-10-09T12:17:40.527Z,67.37
2018-10-09T12:20:11.923Z,66.53
2018-10-09T12:22:43.107Z,67.50
2018-10-09T12:25:14.373Z,65.67
2018-10-09T12:27:45.322Z,63.50
2018-10-09T12:30:17.042Z,64.20
2018-10-09T12:32:48.506Z,61.70
2018-10-09T12:35:20.135Z,64.63
2018-10-09T12:37:51.607Z,61.13
2018-10-09T12:40:22.964Z,60.50
2018-10-09T12:42:54.190Z,61.83
2018-10-09T12:45:25.682Z,60.70
2018-10-09T12:47:56.948Z,62.27
2018-10-09T12:50:28.714Z,62.00
2018-10-09T12:52:59.902Z,63.57
2018-10-09T12:55:31.127Z,61.10
2018-10-09T12:58:03.006Z,61.80
2018-10-09T13:00:34.683Z,61.60
2018-10-09T13:03:07.813Z,72.47
2018-10-09T13:05:39.400Z,64.57
2018-10-09T13:08:11.108Z,64.83
2018-10-09T13:10:42.287Z,66.47
2018-10-09T13:13:13.463Z,65.70
2018-10-09T13:15:45.487Z,64.53
2018-10-09T13:18:16.851Z,67.70
2018-10-09T13:20:48.612Z,66.93
2018-10-09T13:23:20.235Z,68.27
2018-10-09T13:25:51.403Z,65.17
2018-10-09T13:28:22.107Z,70.47
2018-10-09T13:30:53.277Z,72.73
2018-10-09T13:33:24.042Z,70.40
2018-10-09T13:35:56.081Z,73.10
2018-10-09T13:38:27.180Z,68.60
2018-10-09T13:40:58.473Z,70.17
2018-10-09T13:43:29.851Z,69.30
2018-10-09T13:46:01.431Z,71.00
2018-10-09T13:48:32.819Z,70.37
2018-10-09T13:51:04.362Z,71.43
2018-10-09T13:53:36.336Z,69.10
2018-10-09T13:56:07.937Z,74.13
2018-10-09T13:58:39.389Z,73.80
2018-10-09T14:01:10.851Z,74.90
2018-10-09T14:03:42.348Z,76.97
2018-10-09T14:06:14.496Z,76.80
2018-10-09T14:08:46.996Z,74.57
2018-10-09T14:11:18.767Z,77.93
2018-10-09T14:13:49.937Z,75.83
2018-10-09T14:16:22.210Z,76.13
2018-10-09T14:18:53.624Z,77.10
2018-10-09T14:21:25.171Z,78.30
2018-10-09T14:23:56.594Z,74.53
2018-10-09T14:26:28.035Z,76.00
2018-10-09T14:28:59.321Z,75.37
2018-10-09T14:31:30.924Z,76.80
2018-10-09T14:34:01.937Z,75.00
2018-10-09T14:36:33.711Z,74.00
2018-10-09T14:39:05.725Z,70.13
2018-10-09T14:41:37.533Z,77.33
2018-10-09T14:44:08.830Z,73.90
2018-10-09T14:46:41.542Z,72.37
2018-10-09T14:49:12.810Z,74.53
2018-10-09T14:51:44.478Z,72.87
2018-10-09T14:54:15.776Z,70.47
2018-10-09T14:56:47.959Z,74.07
2018-10-09T14:59:19.089Z,74.60
2018-10-09T15:01:50.871Z,75.73
2018-10-09T15:04:22.351Z,75.90
2018-10-09T15:06:55.151Z,72.93
2018-10-09T15:09:27.933Z,72.87
2018-10-09T15:12:00.109Z,69.00
2018-10-09T15:14:31.467Z,66.53
2018-10-09T15:17:03.788Z,65.90
2018-10-09T15:19:35.207Z,64.17
2018-10-09T15:22:06.710Z,60.17
2018-10-09T15:24:38.664Z,64.43
2018-10-09T15:27:10.244Z,56.70
2018-10-09T15:29:41.750Z,52.83
2018-10-09T15:32:13.207Z,51.60
2018-10-09T15:34:44.522Z,45.27
2018-10-09T15:37:15.961Z,45.30
2018-10-09T15:39:47.411Z,39.57
2018-10-09T15:42:18.971Z,37.13
2018-10-09T15:44:50.432Z,32.50
2018-10-09T15:47:22.221Z,31.90
2018-10-09T15:49:53.518Z,30.53
2018-10-09T15:52:25.148Z,28.50
2018-10-09T15:54:56.424Z,27.23
2018-10-09T15:57:27.967Z,26.60
2018-10-09T15:59:59.198Z,26.03
2018-10-09T16:02:30.370Z,20.00
2018-10-09T16:05:01.589Z,20.10
2018-10-09T16:07:33.271Z,17.30
2018-10-09T16:10:05.355Z,17.57
2018-10-09T16:12:37.118Z,17.17
2018-10-09T16:15:08.423Z,16.53
2018-10-09T16:17:40.273Z,17.00
2018-10-09T16:20:11.757Z,16.90
2018-10-09T16:22:43.820Z,14.50
2018-10-09T16:25:15.073Z,16.70
2018-10-09T16:27:46.427Z,15.77
2018-10-09T16:30:17.726Z,16.07
2018-10-09T16:32:49.218Z,14.83
2018-10-09T16:35:20.580Z,14.00
2018-10-09T16:37:52.087Z,16.20
2018-10-09T16:40:23.407Z,14.27
2018-10-09T16:42:54.823Z,14.90
2018-10-09T16:45:26.246Z,13.97
2018-10-09T16:47:57.503Z,13.70
2018-10-09T16:50:28.907Z,13.00
2018-10-09T16:53:00.530Z,14.50
2018-10-09T16:55:31.652Z,12.60
2018-10-09T16:58:03.262Z,14.47
2018-10-09T17:00:34.513Z,13.17
2018-10-09T17:03:06.193Z,12.80
2018-10-09T17:05:38.037Z,14.93
2018-10-09T17:08:10.145Z,14.53
2018-10-09T17:10:42.725Z,14.00
2018-10-09T17:13:14.330Z,14.50
2018-10-09T17:15:45.697Z,14.07
2018-10-09T17:18:17.283Z,13.73
2018-10-09T17:20:48.940Z,15.43
2018-10-09T17:23:20.759Z,12.83
2018-10-09T17:25:52.186Z,14.20
2018-10-09T17:28:24.292Z,13.80
2018-10-09T17:30:55.523Z,13.03
2018-10-09T17:33:27.279Z,14.73
2018-10-09T17:35:58.859Z,14.07
2018-10-09T17:38:30.510Z,14.10
2018-10-09T17:41:06.703Z,13.80
2018-10-09T17:43:38.690Z,14.27
2018-10-09T17:46:11.282Z,15.50
2018-10-09T17:48:43.461Z,15.00
2018-10-09T17:51:15.065Z,14.67
2018-10-09T17:53:46.579Z,13.27
2018-10-09T17:56:18.406Z,15.20
2018-10-09T17:58:51.067Z,13.83
2018-10-09T18:01:22.482Z,13.73
2018-10-09T18:03:54.104Z,16.00
2018-10-09T18:06:25.691Z,14.57
2018-10-09T18:08:57.163Z,15.33
2018-10-09T18:11:28.474Z,15.43
2018-10-09T18:13:59.979Z,14.83
2018-10-09T18:16:31.174Z,14.50
2018-10-09T18:19:02.740Z,15.57
2018-10-09T18:21:34.800Z,13.87
2018-10-09T18:24:07.742Z,14.87
2018-10-09T18:26:38.818Z,13.27
2018-10-09T18:29:10.343Z,13.00
2018-10-09T18:31:41.507Z,14.67
2018-10-09T18:34:13.186Z,14.23
2018-10-09T18:36:44.252Z,15.13
2018-10-09T18:39:17.123Z,13.77
2018-10-09T18:41:48.941Z,13.80
2018-10-09T18:44:20.318Z,15.60
2018-10-09T18:46:53.259Z,15.23
2018-10-09T18:49:24.678Z,15.37
2018-10-09T18:51:56.000Z,14.13
2018-10-09T18:54:27.331Z,14.47
2018-10-09T18:56:58.626Z,13.50
2018-10-09T18:59:29.975Z,16.50
2018-10-09T19:02:01.243Z,15.23
2018-10-09T19:04:32.446Z,15.30
2018-10-09T19:07:03.531Z,14.90
2018-10-09T19:09:35.212Z,16.10
2018-10-09T19:12:06.854Z,15.10
2018-10-09T19:14:40.959Z,15.33
2018-10-09T19:17:12.167Z,14.07
2018-10-09T19:19:43.688Z,15.67
2018-10-09T19:22:14.911Z,15.80
2018-10-09T19:24:46.449Z,14.63
2018-10-09T19:27:17.610Z,14.80
2018-10-09T19:29:48.934Z,16.50
2018-10-09T19:32:20.173Z,16.10
2018-10-09T19:34:51.531Z,17.03
2018-10-09T19:37:22.935Z,15.90
2018-10-09T19:39:54.411Z,17.77
2018-10-09T19:42:25.602Z,15.70
2018-10-09T19:44:56.918Z,15.10
2018-10-09T19:47:32.955Z,17.03
2018-10-09T19:50:05.067Z,17.20
2018-10-09T19:52:36.862Z,17.27
2018-10-09T19:55:08.427Z,16.87
2018-10-09T19:57:39.275Z,18.80
2018-10-09T20:00:11.279Z,17.37
2018-10-09T20:02:42.572Z,17.80
2018-10-09T20:05:14.194Z,17.40
2018-10-09T20:07:45.599Z,19.00
2018-10-09T20:10:17.229Z,18.50
2018-10-09T20:12:48.555Z,18.50
2018-10-09T20:15:20.311Z,18.17
2018-10-09T20:17:51.732Z,17.50
2018-10-09T20:20:23.177Z,17.00
2018-10-09T20:22:54.410Z,17.67
2018-10-09T20:25:25.956Z,16.93
2018-10-09T20:27:57.297Z,17.30
2018-10-09T20:30:29.460Z,18.20
2018-10-09T20:33:00.774Z,17.87
2018-10-09T20:35:32.943Z,16.77
2018-10-09T20:38:05.086Z,17.30
2018-10-09T20:40:37.217Z,18.60
2018-10-09T20:43:08.631Z,17.73
2018-10-09T20:45:40.506Z,16.80
2018-10-09T20:48:12.373Z,18.40
2018-10-09T20:50:43.966Z,18.23
2018-10-09T20:53:15.178Z,16.50
2018-10-09T20:55:46.827Z,18.40
2018-10-09T20:58:18.204Z,17.93
2018-10-09T21:00:49.710Z,18.50
2018-10-09T21:03:20.987Z,17.63
2018-10-09T21:05:52.416Z,17.80
2018-10-09T21:08:23.794Z,17.50
2018-10-09T21:10:55.072Z,16.70
2018-10-09T21:13:26.524Z,18.33
2018-10-09T21:15:58.095Z,18.80
2018-10-09T21:18:29.342Z,18.50
2018-10-09T21:21:00.582Z,20.63
2018-10-09T21:23:31.842Z,19.43
2018-10-09T21:26:03.237Z,20.27
2018-10-09T21:28:34.691Z,17.93
2018-10-09T21:31:09.451Z,19.60
2018-10-09T21:33:40.974Z,20.17
2018-10-09T21:36:12.883Z,20.63
2018-10-09T21:38:44.139Z,19.87
2018-10-09T21:41:15.979Z,20.43
2018-10-09T21:43:47.225Z,18.70
2018-10-09T21:46:18.802Z,19.40
2018-10-09T21:48:51.087Z,19.70
2018-10-09T21:51:22.707Z,18.00
2018-10-09T21:53:54.080Z,20.60
2018-10-09T21:56:25.690Z,21.03
2018-10-09T21:58:56.919Z,20.03
2018-10-09T22:01:28.442Z,18.27
2018-10-09T22:03:59.912Z,17.97
2018-10-09T22:06:31.172Z,20.67
2018-10-09T22:09:02.427Z,19.60
2018-10-09T22:11:34.275Z,18.90
2018-10-09T22:14:05.749Z,19.40
2018-10-09T22:16:36.954Z,18.90
2018-10-09T22:19:08.190Z,20.00
2018-10-09T22:21:39.911Z,19.80
2018-10-09T22:24:11.268Z,19.43
2018-10-09T22:26:42.610Z,17.77
2018-10-09T22:29:13.879Z,18.80
2018-10-09T22:31:45.879Z,19.00
2018-10-09T22:34:17.306Z,20.33
2018-10-09T22:36:48.851Z,18.53
2018-10-09T22:39:20.266Z,20.67
2018-10-09T22:41:51.776Z,21.30
2018-10-09T22:44:23.138Z,18.93
2018-10-09T22:46:54.770Z,19.63
2018-10-09T22:49:26.447Z,20.93
2018-10-09T22:51:58.120Z,20.30
2018-10-09T22:54:29.163Z,18.53
2018-10-09T22:57:01.106Z,19.33
2018-10-09T22:59:32.390Z,20.20
2018-10-09T23:02:04.035Z,17.60
2018-10-09T23:04:35.387Z,18.90
2018-10-09T23:07:08.293Z,18.13
2018-10-09T23:09:39.770Z,17.73
2018-10-09T23:12:11.435Z,18.57
2018-10-09T23:14:42.684Z,20.70
2018-10-09T23:17:14.433Z,19.93
2018-10-09T23:19:45.698Z,18.87
2018-10-09T23:22:17.580Z,18.43
2018-10-09T23:24:49.156Z,19.53
2018-10-09T23:27:20.491Z,19.33
2018-10-09T23:29:51.723Z,18.43
2018-10-09T23:32:23.401Z,19.07
2018-10-09T23:34:54.510Z,19.40
2018-10-09T23:37:25.929Z,18.67
2018-10-09T23:39:57.400Z,19.30
2018-10-09T23:42:30.017Z,19.40
2018-10-09T23:45:01.244Z,19.60
2018-10-09T23:47:32.882Z,18.83
2018-10-09T23:50:06.155Z,17.83
2018-10-09T23:52:37.982Z,19.47
2018-10-09T23:55:09.519Z,19.90
2018-10-09T23:57:41.853Z,19.90
